sensor_id;sensor_type;location;lat;lon;timestamp;pressure;altitude;pressure_sealevel;temperature;humidity
4576;BME280;2300;51.874;8.430;2023-05-03T00:00:55;101984.13;;;5.14;78.72
4576;BME280;2300;51.874;8.430;2023-05-03T00:03:25;101999.94;;;5.02;79.02
4576;BME280;2300;51.874;8.430;2023-05-03T00:05:51;101985.66;;;5.08;79.73
4576;BME280;2300;51.874;8.430;2023-05-03T00:08:18;101988.22;;;5.10;79.58
4576;BME280;2300;51.874;8.430;2023-05-03T00:10:46;101977.81;;;5.05;79.79
4576;BME280;2300;51.874;8.430;2023-05-03T00:13:12;101971.31;;;4.98;79.45
4576;BME280;2300;51.874;8.430;2023-05-03T00:15:38;101988.06;;;5.11;79.55
4576;BME280;2300;51.874;8.430;2023-05-03T00:18:06;101988.72;;;5.13;79.38
4576;BME280;2300;51.874;8.430;2023-05-03T00:20:33;101996.44;;;5.18;79.10
4576;BME280;2300;51.874;8.430;2023-05-03T00:22:59;101991.09;;;5.08;79.51
4576;BME280;2300;51.874;8.430;2023-05-03T00:25:26;101989.22;;;5.01;79.24
4576;BME280;2300;51.874;8.430;2023-05-03T00:27:52;101984.44;;;4.95;79.24
4576;BME280;2300;51.874;8.430;2023-05-03T00:30:19;101985.94;;;4.89;79.77
4576;BME280;2300;51.874;8.430;2023-05-03T00:32:45;101989.34;;;4.91;79.92
4576;BME280;2300;51.874;8.430;2023-05-03T00:35:13;101989.72;;;4.96;80.47
4576;BME280;2300;51.874;8.430;2023-05-03T00:37:39;101990.38;;;4.98;79.91
4576;BME280;2300;51.874;8.430;2023-05-03T00:40:07;101989.38;;;4.99;80.28
4576;BME280;2300;51.874;8.430;2023-05-03T00:42:34;101972.66;;;4.86;80.48
4576;BME280;2300;51.874;8.430;2023-05-03T00:45:01;101988.00;;;4.95;79.80
4576;BME280;2300;51.874;8.430;2023-05-03T00:47:29;101989.00;;;4.94;80.56
4576;BME280;2300;51.874;8.430;2023-05-03T00:49:56;101963.28;;;4.80;80.67
4576;BME280;2300;51.874;8.430;2023-05-03T00:52:23;101955.41;;;4.69;81.15
4576;BME280;2300;51.874;8.430;2023-05-03T00:54:51;101977.41;;;4.84;80.63
4576;BME280;2300;51.874;8.430;2023-05-03T00:57:18;101976.31;;;4.69;81.29
4576;BME280;2300;51.874;8.430;2023-05-03T00:59:45;101980.06;;;4.68;80.69
4576;BME280;2300;51.874;8.430;2023-05-03T01:02:12;101976.25;;;4.53;81.41
4576;BME280;2300;51.874;8.430;2023-05-03T01:04:38;101975.72;;;4.49;81.13
4576;BME280;2300;51.874;8.430;2023-05-03T01:07:10;101977.72;;;4.39;81.66
4576;BME280;2300;51.874;8.430;2023-05-03T01:09:48;101984.91;;;4.30;82.79
4576;BME280;2300;51.874;8.430;2023-05-03T01:12:25;101986.25;;;4.26;82.38
4576;BME280;2300;51.874;8.430;2023-05-03T01:15:01;101970.38;;;4.14;82.33
4576;BME280;2300;51.874;8.430;2023-05-03T01:17:35;101993.78;;;4.06;83.99
4576;BME280;2300;51.874;8.430;2023-05-03T01:20:05;101983.88;;;3.97;83.99
4576;BME280;2300;51.874;8.430;2023-05-03T01:22:38;102000.69;;;4.01;83.58
4576;BME280;2300;51.874;8.430;2023-05-03T01:25:10;101993.03;;;3.96;83.51
4576;BME280;2300;51.874;8.430;2023-05-03T01:27:38;101991.50;;;3.94;83.30
4576;BME280;2300;51.874;8.430;2023-05-03T01:30:06;101993.13;;;3.87;84.39
4576;BME280;2300;51.874;8.430;2023-05-03T01:32:48;101993.41;;;3.84;84.01
4576;BME280;2300;51.874;8.430;2023-05-03T01:35:24;101995.69;;;3.71;85.51
4576;BME280;2300;51.874;8.430;2023-05-03T01:37:54;101995.31;;;3.66;85.90
4576;BME280;2300;51.874;8.430;2023-05-03T01:40:24;101992.44;;;3.67;85.27
4576;BME280;2300;51.874;8.430;2023-05-03T01:42:54;101990.50;;;3.59;84.44
4576;BME280;2300;51.874;8.430;2023-05-03T01:45:29;102005.66;;;3.62;85.32
4576;BME280;2300;51.874;8.430;2023-05-03T01:47:56;102010.53;;;3.58;85.55
4576;BME280;2300;51.874;8.430;2023-05-03T01:50:22;102006.56;;;3.53;86.39
4576;BME280;2300;51.874;8.430;2023-05-03T01:52:49;102006.72;;;3.51;85.56
4576;BME280;2300;51.874;8.430;2023-05-03T01:55:16;102003.16;;;3.51;85.51
4576;BME280;2300;51.874;8.430;2023-05-03T01:57:44;102007.22;;;3.47;85.91
4576;BME280;2300;51.874;8.430;2023-05-03T02:00:11;102006.56;;;3.35;86.69
4576;BME280;2300;51.874;8.430;2023-05-03T02:02:38;102008.69;;;3.41;86.71
4576;BME280;2300;51.874;8.430;2023-05-03T02:05:05;102003.13;;;3.33;86.59
4576;BME280;2300;51.874;8.430;2023-05-03T02:07:32;101988.31;;;3.10;86.43
4576;BME280;2300;51.874;8.430;2023-05-03T02:09:58;102018.03;;;3.29;87.27
4576;BME280;2300;51.874;8.430;2023-05-03T02:12:25;102021.75;;;3.28;86.42
4576;BME280;2300;51.874;8.430;2023-05-03T02:14:52;102009.97;;;3.19;86.48
4576;BME280;2300;51.874;8.430;2023-05-03T02:17:19;102013.03;;;3.07;86.76
4576;BME280;2300;51.874;8.430;2023-05-03T02:19:46;102006.41;;;2.92;87.32
4576;BME280;2300;51.874;8.430;2023-05-03T02:22:12;102026.81;;;2.96;87.21
4576;BME280;2300;51.874;8.430;2023-05-03T02:24:39;102033.25;;;2.95;87.95
4576;BME280;2300;51.874;8.430;2023-05-03T02:27:05;102030.94;;;3.00;87.29
4576;BME280;2300;51.874;8.430;2023-05-03T02:29:31;102010.03;;;2.83;87.23
4576;BME280;2300;51.874;8.430;2023-05-03T02:31:59;102027.03;;;2.85;88.12
4576;BME280;2300;51.874;8.430;2023-05-03T02:34:26;102042.00;;;2.89;87.72
4576;BME280;2300;51.874;8.430;2023-05-03T02:36:52;102029.88;;;2.83;87.60
4576;BME280;2300;51.874;8.430;2023-05-03T02:39:19;102029.94;;;2.73;87.07
4576;BME280;2300;51.874;8.430;2023-05-03T02:41:45;102023.69;;;2.63;87.67
4576;BME280;2300;51.874;8.430;2023-05-03T02:44:12;102021.44;;;2.59;87.13
4576;BME280;2300;51.874;8.430;2023-05-03T02:46:38;102037.94;;;2.65;87.39
4576;BME280;2300;51.874;8.430;2023-05-03T02:49:07;102009.19;;;2.45;87.83
4576;BME280;2300;51.874;8.430;2023-05-03T02:51:34;102040.28;;;2.51;88.56
4576;BME280;2300;51.874;8.430;2023-05-03T02:54:01;102037.97;;;2.56;88.38
4576;BME280;2300;51.874;8.430;2023-05-03T02:56:28;102054.28;;;2.46;88.45
4576;BME280;2300;51.874;8.430;2023-05-03T02:58:54;102057.56;;;2.50;88.51
4576;BME280;2300;51.874;8.430;2023-05-03T03:01:21;102010.72;;;2.11;88.31
4576;BME280;2300;51.874;8.430;2023-05-03T03:03:47;102050.63;;;2.38;89.14
4576;BME280;2300;51.874;8.430;2023-05-03T03:06:15;102024.69;;;2.16;88.56
4576;BME280;2300;51.874;8.430;2023-05-03T03:08:41;102050.03;;;2.34;88.56
4576;BME280;2300;51.874;8.430;2023-05-03T03:11:08;102048.03;;;2.36;88.77
4576;BME280;2300;51.874;8.430;2023-05-03T03:13:34;102051.19;;;2.31;89.26
4576;BME280;2300;51.874;8.430;2023-05-03T03:16:04;102043.19;;;2.30;88.77
4576;BME280;2300;51.874;8.430;2023-05-03T03:18:30;102052.63;;;2.26;88.16
4576;BME280;2300;51.874;8.430;2023-05-03T03:20:59;102044.38;;;2.18;88.42
4576;BME280;2300;51.874;8.430;2023-05-03T03:23:27;102035.81;;;2.13;89.40
4576;BME280;2300;51.874;8.430;2023-05-03T03:25:54;102038.50;;;2.13;90.23
4576;BME280;2300;51.874;8.430;2023-05-03T03:28:20;102037.25;;;2.17;89.70
4576;BME280;2300;51.874;8.430;2023-05-03T03:30:47;102033.84;;;1.96;89.23
4576;BME280;2300;51.874;8.430;2023-05-03T03:33:13;102035.81;;;2.03;89.47
4576;BME280;2300;51.874;8.430;2023-05-03T03:35:39;102024.31;;;1.91;89.59
4576;BME280;2300;51.874;8.430;2023-05-03T03:38:06;102036.25;;;1.99;89.44
4576;BME280;2300;51.874;8.430;2023-05-03T03:40:34;102028.72;;;1.83;89.89
4576;BME280;2300;51.874;8.430;2023-05-03T03:43:00;102034.00;;;1.84;90.72
4576;BME280;2300;51.874;8.430;2023-05-03T03:45:27;102025.88;;;1.84;90.25
4576;BME280;2300;51.874;8.430;2023-05-03T03:47:53;102020.75;;;1.81;89.71
4576;BME280;2300;51.874;8.430;2023-05-03T03:50:22;102022.19;;;1.76;90.14
4576;BME280;2300;51.874;8.430;2023-05-03T03:52:48;101983.69;;;1.43;89.78
4576;BME280;2300;51.874;8.430;2023-05-03T03:55:14;102027.59;;;1.76;90.60
4576;BME280;2300;51.874;8.430;2023-05-03T03:57:42;102032.41;;;1.72;91.55
4576;BME280;2300;51.874;8.430;2023-05-03T04:00:10;102034.72;;;1.86;91.01
4576;BME280;2300;51.874;8.430;2023-05-03T04:02:37;102037.84;;;1.91;90.59
4576;BME280;2300;51.874;8.430;2023-05-03T04:05:04;102030.72;;;1.90;90.30
4576;BME280;2300;51.874;8.430;2023-05-03T04:07:32;102020.75;;;1.81;89.99
4576;BME280;2300;51.874;8.430;2023-05-03T04:09:58;102038.44;;;1.85;89.93
4576;BME280;2300;51.874;8.430;2023-05-03T04:12:25;102021.75;;;1.71;89.86
4576;BME280;2300;51.874;8.430;2023-05-03T04:14:53;102039.28;;;1.76;91.00
4576;BME280;2300;51.874;8.430;2023-05-03T04:17:21;102011.06;;;1.69;91.75
4576;BME280;2300;51.874;8.430;2023-05-03T04:19:47;102046.09;;;2.00;91.45
4576;BME280;2300;51.874;8.430;2023-05-03T04:22:14;102043.50;;;2.08;90.31
4576;BME280;2300;51.874;8.430;2023-05-03T04:24:40;102023.44;;;2.01;90.34
4576;BME280;2300;51.874;8.430;2023-05-03T04:27:08;102028.41;;;2.05;89.93
4576;BME280;2300;51.874;8.430;2023-05-03T04:29:35;102042.78;;;2.25;90.35
4576;BME280;2300;51.874;8.430;2023-05-03T04:32:04;102036.69;;;1.94;90.22
4576;BME280;2300;51.874;8.430;2023-05-03T04:34:31;102049.19;;;2.24;90.03
4576;BME280;2300;51.874;8.430;2023-05-03T04:36:57;102048.91;;;2.27;89.89
4576;BME280;2300;51.874;8.430;2023-05-03T04:39:24;102051.88;;;2.43;90.12
4576;BME280;2300;51.874;8.430;2023-05-03T04:41:51;102056.69;;;2.49;89.85
4576;BME280;2300;51.874;8.430;2023-05-03T04:44:17;102059.66;;;2.65;89.77
4576;BME280;2300;51.874;8.430;2023-05-03T04:46:45;102056.63;;;2.78;89.09
4576;BME280;2300;51.874;8.430;2023-05-03T04:49:13;102048.41;;;2.88;88.60
4576;BME280;2300;51.874;8.430;2023-05-03T04:51:39;102050.22;;;2.97;88.66
4576;BME280;2300;51.874;8.430;2023-05-03T04:54:07;102053.47;;;3.10;88.83
4576;BME280;2300;51.874;8.430;2023-05-03T04:56:34;102044.81;;;3.24;88.83
4576;BME280;2300;51.874;8.430;2023-05-03T04:59:00;102040.75;;;3.28;89.03
4576;BME280;2300;51.874;8.430;2023-05-03T05:01:28;102022.06;;;3.43;88.60
4576;BME280;2300;51.874;8.430;2023-05-03T05:03:55;102036.53;;;3.79;88.70
4576;BME280;2300;51.874;8.430;2023-05-03T05:06:23;102051.38;;;5.13;90.05
4576;BME280;2300;51.874;8.430;2023-05-03T05:08:50;102039.53;;;8.00;86.10
4576;BME280;2300;51.874;8.430;2023-05-03T05:11:16;102040.13;;;10.63;76.22
4576;BME280;2300;51.874;8.430;2023-05-03T05:13:45;101974.91;;;11.99;67.41
4576;BME280;2300;51.874;8.430;2023-05-03T05:16:11;102025.88;;;13.52;61.83
4576;BME280;2300;51.874;8.430;2023-05-03T05:18:38;102036.28;;;14.50;58.44
4576;BME280;2300;51.874;8.430;2023-05-03T05:21:04;102060.03;;;15.37;56.24
4576;BME280;2300;51.874;8.430;2023-05-03T05:23:32;102053.72;;;16.08;53.58
4576;BME280;2300;51.874;8.430;2023-05-03T05:25:59;102005.25;;;16.41;52.50
4576;BME280;2300;51.874;8.430;2023-05-03T05:28:25;102054.19;;;17.40;49.97
4576;BME280;2300;51.874;8.430;2023-05-03T05:30:52;102061.50;;;18.14;48.71
4576;BME280;2300;51.874;8.430;2023-05-03T05:33:19;102054.00;;;17.46;49.62
4576;BME280;2300;51.874;8.430;2023-05-03T05:35:46;102065.94;;;17.98;48.25
4576;BME280;2300;51.874;8.430;2023-05-03T05:38:14;102071.06;;;18.68;47.79
4576;BME280;2300;51.874;8.430;2023-05-03T05:40:42;102082.69;;;19.37;46.29
4576;BME280;2300;51.874;8.430;2023-05-03T05:43:09;102073.47;;;20.02;46.44
4576;BME280;2300;51.874;8.430;2023-05-03T05:45:36;102074.03;;;21.00;43.40
4576;BME280;2300;51.874;8.430;2023-05-03T05:48:03;102059.03;;;21.11;43.33
4576;BME280;2300;51.874;8.430;2023-05-03T05:50:30;102074.97;;;20.73;43.33
4576;BME280;2300;51.874;8.430;2023-05-03T05:52:56;102091.44;;;20.70;43.56
4576;BME280;2300;51.874;8.430;2023-05-03T05:55:23;102093.25;;;20.91;43.05
4576;BME280;2300;51.874;8.430;2023-05-03T05:57:51;102084.38;;;20.99;42.59
4576;BME280;2300;51.874;8.430;2023-05-03T06:00:18;102091.47;;;21.17;43.51
4576;BME280;2300;51.874;8.430;2023-05-03T06:02:45;102085.03;;;21.63;41.84
4576;BME280;2300;51.874;8.430;2023-05-03T06:05:13;102084.66;;;20.34;42.67
4576;BME280;2300;51.874;8.430;2023-05-03T06:07:39;102090.81;;;21.47;42.75
4576;BME280;2300;51.874;8.430;2023-05-03T06:10:06;102088.75;;;20.85;42.50
4576;BME280;2300;51.874;8.430;2023-05-03T06:12:33;102091.72;;;20.73;42.35
4576;BME280;2300;51.874;8.430;2023-05-03T06:15:02;102094.53;;;19.27;44.66
4576;BME280;2300;51.874;8.430;2023-05-03T06:17:29;102096.19;;;19.89;44.22
4576;BME280;2300;51.874;8.430;2023-05-03T06:19:56;102103.88;;;19.60;43.75
4576;BME280;2300;51.874;8.430;2023-05-03T06:22:22;102065.78;;;20.14;42.96
4576;BME280;2300;51.874;8.430;2023-05-03T06:24:49;102103.09;;;20.35;44.15
4576;BME280;2300;51.874;8.430;2023-05-03T06:27:15;102103.69;;;20.10;42.20
4576;BME280;2300;51.874;8.430;2023-05-03T06:29:42;102101.44;;;18.25;44.97
4576;BME280;2300;51.874;8.430;2023-05-03T06:32:10;102105.72;;;19.11;44.32
4576;BME280;2300;51.874;8.430;2023-05-03T06:34:36;102108.50;;;19.11;45.20
4576;BME280;2300;51.874;8.430;2023-05-03T06:37:03;102103.16;;;19.26;44.82
4576;BME280;2300;51.874;8.430;2023-05-03T06:39:30;102092.06;;;18.93;43.92
4576;BME280;2300;51.874;8.430;2023-05-03T06:41:57;102094.31;;;18.62;44.56
4576;BME280;2300;51.874;8.430;2023-05-03T06:44:24;102097.72;;;18.19;46.10
4576;BME280;2300;51.874;8.430;2023-05-03T06:46:50;102097.00;;;18.40;46.33
4576;BME280;2300;51.874;8.430;2023-05-03T06:49:18;102102.66;;;18.62;44.94
4576;BME280;2300;51.874;8.430;2023-05-03T06:51:46;102097.75;;;17.79;46.12
4576;BME280;2300;51.874;8.430;2023-05-03T06:54:12;102090.47;;;17.62;45.37
4576;BME280;2300;51.874;8.430;2023-05-03T06:56:39;102085.31;;;16.95;47.01
4576;BME280;2300;51.874;8.430;2023-05-03T06:59:06;102075.94;;;17.08;49.00
4576;BME280;2300;51.874;8.430;2023-05-03T07:01:33;102102.28;;;17.57;45.71
4576;BME280;2300;51.874;8.430;2023-05-03T07:04:00;102079.44;;;16.92;46.70
4576;BME280;2300;51.874;8.430;2023-05-03T07:06:27;102089.22;;;15.70;48.85
4576;BME280;2300;51.874;8.430;2023-05-03T07:08:54;102091.66;;;16.08;47.96
4576;BME280;2300;51.874;8.430;2023-05-03T07:11:20;102094.63;;;15.95;50.04
4576;BME280;2300;51.874;8.430;2023-05-03T07:13:48;102096.16;;;15.24;50.83
4576;BME280;2300;51.874;8.430;2023-05-03T07:16:15;102090.84;;;14.80;50.16
4576;BME280;2300;51.874;8.430;2023-05-03T07:18:41;102098.16;;;14.49;51.77
4576;BME280;2300;51.874;8.430;2023-05-03T07:21:08;102084.38;;;14.43;52.34
4576;BME280;2300;51.874;8.430;2023-05-03T07:23:36;102089.25;;;14.16;52.78
4576;BME280;2300;51.874;8.430;2023-05-03T07:26:02;102075.13;;;13.55;54.16
4576;BME280;2300;51.874;8.430;2023-05-03T07:28:29;102090.97;;;14.10;52.85
4576;BME280;2300;51.874;8.430;2023-05-03T07:30:55;102059.13;;;13.70;53.82
4576;BME280;2300;51.874;8.430;2023-05-03T07:33:22;102077.59;;;14.39;53.51
4576;BME280;2300;51.874;8.430;2023-05-03T07:35:48;102082.91;;;14.65;53.76
4576;BME280;2300;51.874;8.430;2023-05-03T07:38:15;102084.66;;;14.59;50.85
4576;BME280;2300;51.874;8.430;2023-05-03T07:40:43;102062.75;;;14.33;51.59
4576;BME280;2300;51.874;8.430;2023-05-03T07:43:10;102059.69;;;14.16;51.86
4576;BME280;2300;51.874;8.430;2023-05-03T07:45:36;102065.25;;;14.10;50.53
4576;BME280;2300;51.874;8.430;2023-05-03T07:48:03;102064.25;;;14.04;52.73
4576;BME280;2300;51.874;8.430;2023-05-03T07:50:30;102066.56;;;14.39;51.63
4576;BME280;2300;51.874;8.430;2023-05-03T07:52:57;102067.47;;;14.26;51.87
4576;BME280;2300;51.874;8.430;2023-05-03T07:55:23;102053.97;;;14.18;50.16
4576;BME280;2300;51.874;8.430;2023-05-03T07:57:52;102052.88;;;13.88;51.41
4576;BME280;2300;51.874;8.430;2023-05-03T08:00:23;102023.81;;;13.78;51.50
4576;BME280;2300;51.874;8.430;2023-05-03T08:02:49;102060.47;;;13.48;53.18
4576;BME280;2300;51.874;8.430;2023-05-03T08:05:16;102034.66;;;13.35;53.46
4576;BME280;2300;51.874;8.430;2023-05-03T08:07:42;102056.69;;;13.87;52.25
4576;BME280;2300;51.874;8.430;2023-05-03T08:10:10;102055.81;;;13.93;53.86
4576;BME280;2300;51.874;8.430;2023-05-03T08:12:37;102036.97;;;13.83;52.67
4576;BME280;2300;51.874;8.430;2023-05-03T08:15:06;102040.47;;;13.59;51.60
4576;BME280;2300;51.874;8.430;2023-05-03T08:17:39;102038.69;;;13.33;52.87
4576;BME280;2300;51.874;8.430;2023-05-03T08:20:07;102037.34;;;12.78;51.89
4576;BME280;2300;51.874;8.430;2023-05-03T08:22:33;101998.56;;;12.66;52.61
4576;BME280;2300;51.874;8.430;2023-05-03T08:25:01;102043.03;;;13.16;53.28
4576;BME280;2300;51.874;8.430;2023-05-03T08:27:28;102044.94;;;13.15;51.17
4576;BME280;2300;51.874;8.430;2023-05-03T08:29:55;102026.72;;;13.01;52.75
4576;BME280;2300;51.874;8.430;2023-05-03T08:32:23;102048.69;;;13.27;51.75
4576;BME280;2300;51.874;8.430;2023-05-03T08:34:51;102008.34;;;12.55;54.84
4576;BME280;2300;51.874;8.430;2023-05-03T08:37:18;102035.38;;;13.11;52.24
4576;BME280;2300;51.874;8.430;2023-05-03T08:39:44;102038.00;;;12.73;54.31
4576;BME280;2300;51.874;8.430;2023-05-03T08:42:11;102045.88;;;13.41;53.62
4576;BME280;2300;51.874;8.430;2023-05-03T08:44:45;102044.47;;;14.01;53.61
4576;BME280;2300;51.874;8.430;2023-05-03T08:47:13;102040.03;;;14.00;51.98
4576;BME280;2300;51.874;8.430;2023-05-03T08:49:42;102017.38;;;13.53;52.50
4576;BME280;2300;51.874;8.430;2023-05-03T08:52:10;102053.06;;;13.48;53.13
4576;BME280;2300;51.874;8.430;2023-05-03T08:54:37;102073.75;;;13.70;55.62
4576;BME280;2300;51.874;8.430;2023-05-03T08:57:09;102042.94;;;13.73;51.88
4576;BME280;2300;51.874;8.430;2023-05-03T08:59:45;102045.19;;;13.90;50.67
4576;BME280;2300;51.874;8.430;2023-05-03T09:02:13;102045.63;;;13.87;51.74
4576;BME280;2300;51.874;8.430;2023-05-03T09:04:41;102035.75;;;13.28;53.18
4576;BME280;2300;51.874;8.430;2023-05-03T09:07:08;102018.78;;;13.24;51.94
4576;BME280;2300;51.874;8.430;2023-05-03T09:09:35;102037.41;;;13.42;53.52
4576;BME280;2300;51.874;8.430;2023-05-03T09:12:02;102033.75;;;13.48;52.53
4576;BME280;2300;51.874;8.430;2023-05-03T09:14:29;102018.94;;;12.52;54.13
4576;BME280;2300;51.874;8.430;2023-05-03T09:17:12;102033.00;;;13.72;53.18
4576;BME280;2300;51.874;8.430;2023-05-03T09:19:49;102036.56;;;13.35;51.58
4576;BME280;2300;51.874;8.430;2023-05-03T09:22:17;102032.06;;;13.47;52.16
4576;BME280;2300;51.874;8.430;2023-05-03T09:24:50;102037.00;;;13.32;51.29
4576;BME280;2300;51.874;8.430;2023-05-03T09:27:17;102042.78;;;13.24;52.42
4576;BME280;2300;51.874;8.430;2023-05-03T09:29:45;102035.94;;;13.33;51.72
4576;BME280;2300;51.874;8.430;2023-05-03T09:32:12;102033.13;;;13.46;52.33
4576;BME280;2300;51.874;8.430;2023-05-03T09:34:39;102038.91;;;13.76;53.21
4576;BME280;2300;51.874;8.430;2023-05-03T09:37:07;102035.56;;;13.67;52.22
4576;BME280;2300;51.874;8.430;2023-05-03T09:39:33;102043.34;;;14.15;52.84
4576;BME280;2300;51.874;8.430;2023-05-03T09:42:09;102039.75;;;14.39;50.84
4576;BME280;2300;51.874;8.430;2023-05-03T09:44:40;102036.78;;;13.78;51.39
4576;BME280;2300;51.874;8.430;2023-05-03T09:47:07;102036.06;;;13.51;50.62
4576;BME280;2300;51.874;8.430;2023-05-03T09:49:33;102038.28;;;13.36;50.23
4576;BME280;2300;51.874;8.430;2023-05-03T09:52:01;102032.66;;;13.56;53.63
4576;BME280;2300;51.874;8.430;2023-05-03T09:54:29;102038.91;;;14.14;54.22
4576;BME280;2300;51.874;8.430;2023-05-03T09:56:56;102032.34;;;14.58;50.36
4576;BME280;2300;51.874;8.430;2023-05-03T09:59:23;102023.38;;;14.62;49.43
4576;BME280;2300;51.874;8.430;2023-05-03T10:01:49;102019.06;;;14.91;50.20
4576;BME280;2300;51.874;8.430;2023-05-03T10:04:24;102023.19;;;15.00;48.88
4576;BME280;2300;51.874;8.430;2023-05-03T10:06:53;102020.13;;;14.47;49.39
4576;BME280;2300;51.874;8.430;2023-05-03T10:09:27;102007.19;;;14.41;51.57
4576;BME280;2300;51.874;8.430;2023-05-03T10:11:59;102009.28;;;14.71;50.14
4576;BME280;2300;51.874;8.430;2023-05-03T10:14:26;102015.25;;;14.67;48.76
4576;BME280;2300;51.874;8.430;2023-05-03T10:16:58;102008.22;;;14.47;49.13
4576;BME280;2300;51.874;8.430;2023-05-03T10:19:29;101996.41;;;13.84;50.45
4576;BME280;2300;51.874;8.430;2023-05-03T10:22:03;102003.94;;;14.26;49.87
4576;BME280;2300;51.874;8.430;2023-05-03T10:24:30;102000.19;;;14.45;49.09
4576;BME280;2300;51.874;8.430;2023-05-03T10:27:00;101988.22;;;14.02;50.86
4576;BME280;2300;51.874;8.430;2023-05-03T10:29:43;101998.00;;;14.47;51.07
4576;BME280;2300;51.874;8.430;2023-05-03T10:32:30;101998.44;;;14.87;48.79
4576;BME280;2300;51.874;8.430;2023-05-03T10:34:59;101994.97;;;14.74;49.73
4576;BME280;2300;51.874;8.430;2023-05-03T10:37:26;101990.63;;;14.41;48.41
4576;BME280;2300;51.874;8.430;2023-05-03T10:39:53;102003.53;;;14.47;48.61
4576;BME280;2300;51.874;8.430;2023-05-03T10:42:23;101996.16;;;14.41;51.66
4576;BME280;2300;51.874;8.430;2023-05-03T10:44:51;101988.66;;;14.48;50.55
4576;BME280;2300;51.874;8.430;2023-05-03T10:47:19;102003.44;;;14.60;50.98
4576;BME280;2300;51.874;8.430;2023-05-03T10:49:47;102000.66;;;14.36;49.37
4576;BME280;2300;51.874;8.430;2023-05-03T10:52:44;101991.16;;;14.75;52.23
4576;BME280;2300;51.874;8.430;2023-05-03T10:55:13;101985.47;;;14.88;51.12
4576;BME280;2300;51.874;8.430;2023-05-03T10:57:42;101993.63;;;15.37;49.46
4576;BME280;2300;51.874;8.430;2023-05-03T11:00:13;101989.06;;;15.43;50.63
4576;BME280;2300;51.874;8.430;2023-05-03T11:02:51;101980.63;;;15.68;50.48
4576;BME280;2300;51.874;8.430;2023-05-03T11:05:27;101969.81;;;15.78;50.83
4576;BME280;2300;51.874;8.430;2023-05-03T11:08:06;101973.78;;;15.82;49.07
4576;BME280;2300;51.874;8.430;2023-05-03T11:10:33;101971.09;;;15.64;49.28
4576;BME280;2300;51.874;8.430;2023-05-03T11:13:01;101974.00;;;15.69;47.24
4576;BME280;2300;51.874;8.430;2023-05-03T11:15:27;101936.00;;;15.16;47.06
4576;BME280;2300;51.874;8.430;2023-05-03T11:17:56;101961.34;;;15.31;47.36
4576;BME280;2300;51.874;8.430;2023-05-03T11:20:22;101961.47;;;15.36;48.25
4576;BME280;2300;51.874;8.430;2023-05-03T11:22:49;101947.56;;;15.13;49.28
4576;BME280;2300;51.874;8.430;2023-05-03T11:25:15;101948.50;;;15.00;48.95
4576;BME280;2300;51.874;8.430;2023-05-03T11:27:42;101922.03;;;15.11;49.22
4576;BME280;2300;51.874;8.430;2023-05-03T11:30:13;101938.38;;;14.94;47.62
4576;BME280;2300;51.874;8.430;2023-05-03T11:32:40;101936.94;;;14.92;50.42
4576;BME280;2300;51.874;8.430;2023-05-03T11:35:07;101930.09;;;15.13;49.11
4576;BME280;2300;51.874;8.430;2023-05-03T11:37:34;101936.78;;;15.35;49.07
4576;BME280;2300;51.874;8.430;2023-05-03T11:40:01;101929.81;;;15.32;49.91
4576;BME280;2300;51.874;8.430;2023-05-03T11:42:29;101935.34;;;15.32;46.96
4576;BME280;2300;51.874;8.430;2023-05-03T11:44:55;101923.47;;;15.14;49.58
4576;BME280;2300;51.874;8.430;2023-05-03T11:47:24;101922.56;;;15.61;48.69
4576;BME280;2300;51.874;8.430;2023-05-03T11:49:51;101928.94;;;15.62;50.26
4576;BME280;2300;51.874;8.430;2023-05-03T11:52:19;101929.22;;;15.72;49.16
4576;BME280;2300;51.874;8.430;2023-05-03T11:54:46;101922.75;;;15.89;48.61
4576;BME280;2300;51.874;8.430;2023-05-03T11:57:12;101928.91;;;16.03;49.34
4576;BME280;2300;51.874;8.430;2023-05-03T11:59:40;101917.19;;;15.78;48.32
4576;BME280;2300;51.874;8.430;2023-05-03T12:02:09;101930.41;;;15.64;47.62
4576;BME280;2300;51.874;8.430;2023-05-03T12:04:39;101928.69;;;15.03;48.90
4576;BME280;2300;51.874;8.430;2023-05-03T12:07:06;101929.31;;;15.05;50.04
4576;BME280;2300;51.874;8.430;2023-05-03T12:09:34;101921.00;;;15.54;50.79
4576;BME280;2300;51.874;8.430;2023-05-03T12:12:01;101934.16;;;16.34;48.15
4576;BME280;2300;51.874;8.430;2023-05-03T12:14:27;101927.72;;;15.99;46.53
4576;BME280;2300;51.874;8.430;2023-05-03T12:16:54;101929.13;;;15.78;46.70
4576;BME280;2300;51.874;8.430;2023-05-03T12:19:24;101917.44;;;15.65;47.94
4576;BME280;2300;51.874;8.430;2023-05-03T12:21:52;101911.66;;;15.78;48.33
4576;BME280;2300;51.874;8.430;2023-05-03T12:24:18;101912.75;;;15.88;47.73
4576;BME280;2300;51.874;8.430;2023-05-03T12:26:47;101913.13;;;15.92;48.41
4576;BME280;2300;51.874;8.430;2023-05-03T12:29:14;101903.91;;;16.21;46.88
4576;BME280;2300;51.874;8.430;2023-05-03T12:31:41;101908.84;;;16.43;48.18
4576;BME280;2300;51.874;8.430;2023-05-03T12:34:08;101907.13;;;16.53;47.87
4576;BME280;2300;51.874;8.430;2023-05-03T12:36:36;101914.13;;;16.56;47.85
4576;BME280;2300;51.874;8.430;2023-05-03T12:39:04;101908.59;;;16.56;47.95
4576;BME280;2300;51.874;8.430;2023-05-03T12:41:32;101898.91;;;16.70;48.25
4576;BME280;2300;51.874;8.430;2023-05-03T12:43:58;101902.72;;;16.92;47.51
4576;BME280;2300;51.874;8.430;2023-05-03T12:46:26;101902.91;;;17.02;48.21
4576;BME280;2300;51.874;8.430;2023-05-03T12:48:53;101894.75;;;16.84;46.68
4576;BME280;2300;51.874;8.430;2023-05-03T12:51:19;101885.69;;;16.49;45.17
4576;BME280;2300;51.874;8.430;2023-05-03T12:53:46;101877.47;;;16.07;45.28
4576;BME280;2300;51.874;8.430;2023-05-03T12:56:16;101882.78;;;15.97;46.05
4576;BME280;2300;51.874;8.430;2023-05-03T12:58:42;101882.44;;;16.28;47.00
4576;BME280;2300;51.874;8.430;2023-05-03T13:01:12;101867.03;;;16.21;45.27
4576;BME280;2300;51.874;8.430;2023-05-03T13:03:38;101876.28;;;16.38;44.26
4576;BME280;2300;51.874;8.430;2023-05-03T13:06:05;101885.34;;;16.10;44.25
4576;BME280;2300;51.874;8.430;2023-05-03T13:08:32;101878.47;;;16.36;46.27
4576;BME280;2300;51.874;8.430;2023-05-03T13:11:00;101876.56;;;16.37;47.44
4576;BME280;2300;51.874;8.430;2023-05-03T13:13:28;101872.34;;;16.74;45.76
4576;BME280;2300;51.874;8.430;2023-05-03T13:15:54;101872.66;;;16.61;46.04
4576;BME280;2300;51.874;8.430;2023-05-03T13:18:21;101867.41;;;16.88;46.33